JAD weather

Perth Jandakot Airport
Perth, Western Australia, Australia

Public forecast

Using degrees Celsius for public forecast. Weather courtesy of forecast.io.

METAR (pilot weather report)

Retrieved 2018/05/21 17:30 UTC (15 minutes ago):

YPJT 211730Z AUTO 09005KT //// // NCD 10/04 Q1024 RF00.0/000.0 PRESENT WEATHER SENSOR US

TAF (pilot weather forecast)

Retrieved 2018/05/21 12:00 UTC (6 hours ago):

TAF YPJT 211006Z 2112/2206 07010KT CAVOK FM220100 01012KT CAVOK